sensor_id;sensor_type;location;lat;lon;timestamp;temperature;humidity
17774;DHT22;9011;33.236;-97.118;2024-01-11T00:01:30;15.50;93.00
17774;DHT22;9011;33.236;-97.118;2024-01-11T00:03:58;15.50;93.20
17774;DHT22;9011;33.236;-97.118;2024-01-11T00:06:25;15.20;92.50
17774;DHT22;9011;33.236;-97.118;2024-01-11T00:08:53;14.90;92.70
17774;DHT22;9011;33.236;-97.118;2024-01-11T00:11:22;14.80;93.00
17774;DHT22;9011;33.236;-97.118;2024-01-11T00:13:49;14.60;94.00
17774;DHT22;9011;33.236;-97.118;2024-01-11T00:16:17;14.40;94.90
17774;DHT22;9011;33.236;-97.118;2024-01-11T00:18:44;14.10;94.10
17774;DHT22;9011;33.236;-97.118;2024-01-11T00:21:12;14.00;94.40
17774;DHT22;9011;33.236;-97.118;2024-01-11T00:23:39;13.80;94.40
17774;DHT22;9011;33.236;-97.118;2024-01-11T00:26:07;13.80;94.50
17774;DHT22;9011;33.236;-97.118;2024-01-11T00:28:35;13.60;94.80
17774;DHT22;9011;33.236;-97.118;2024-01-11T00:31:03;13.50;94.50
17774;DHT22;9011;33.236;-97.118;2024-01-11T00:33:31;13.30;95.00
17774;DHT22;9011;33.236;-97.118;2024-01-11T00:35:59;13.10;95.60
17774;DHT22;9011;33.236;-97.118;2024-01-11T00:38:27;12.90;95.90
17774;DHT22;9011;33.236;-97.118;2024-01-11T00:40:55;12.80;95.70
17774;DHT22;9011;33.236;-97.118;2024-01-11T00:43:23;12.60;96.10
17774;DHT22;9011;33.236;-97.118;2024-01-11T00:45:52;12.50;96.50
17774;DHT22;9011;33.236;-97.118;2024-01-11T00:48:19;12.40;96.30
17774;DHT22;9011;33.236;-97.118;2024-01-11T00:50:47;12.30;97.00
17774;DHT22;9011;33.236;-97.118;2024-01-11T00:53:15;12.20;97.10
17774;DHT22;9011;33.236;-97.118;2024-01-11T00:55:43;12.00;97.40
17774;DHT22;9011;33.236;-97.118;2024-01-11T00:58:10;12.00;97.20
17774;DHT22;9011;33.236;-97.118;2024-01-11T01:00:38;11.90;97.80
17774;DHT22;9011;33.236;-97.118;2024-01-11T01:03:06;11.80;98.00
17774;DHT22;9011;33.236;-97.118;2024-01-11T01:05:34;11.60;97.50
17774;DHT22;9011;33.236;-97.118;2024-01-11T01:08:02;11.60;97.60
17774;DHT22;9011;33.236;-97.118;2024-01-11T01:10:30;11.50;97.60
17774;DHT22;9011;33.236;-97.118;2024-01-11T01:12:57;11.40;98.50
17774;DHT22;9011;33.236;-97.118;2024-01-11T01:15:25;11.30;98.10
17774;DHT22;9011;33.236;-97.118;2024-01-11T01:17:53;11.20;98.80
17774;DHT22;9011;33.236;-97.118;2024-01-11T01:20:22;11.20;98.50
17774;DHT22;9011;33.236;-97.118;2024-01-11T01:22:50;11.10;98.90
17774;DHT22;9011;33.236;-97.118;2024-01-11T01:25:17;11.10;99.10
17774;DHT22;9011;33.236;-97.118;2024-01-11T01:27:45;10.90;99.30
17774;DHT22;9011;33.236;-97.118;2024-01-11T01:30:13;10.80;99.20
17774;DHT22;9011;33.236;-97.118;2024-01-11T16:48:34;12.80;99.90
17774;DHT22;9011;33.236;-97.118;2024-01-11T16:51:02;13.00;99.90
17774;DHT22;9011;33.236;-97.118;2024-01-11T16:53:30;13.00;99.90
17774;DHT22;9011;33.236;-97.118;2024-01-11T16:55:58;13.20;99.90
17774;DHT22;9011;33.236;-97.118;2024-01-11T16:58:26;13.30;99.90
17774;DHT22;9011;33.236;-97.118;2024-01-11T17:00:53;13.30;99.90
17774;DHT22;9011;33.236;-97.118;2024-01-11T17:03:21;13.40;99.90
17774;DHT22;9011;33.236;-97.118;2024-01-11T17:05:49;13.50;99.90
17774;DHT22;9011;33.236;-97.118;2024-01-11T17:08:17;13.70;99.90
17774;DHT22;9011;33.236;-97.118;2024-01-11T17:10:44;13.90;99.90
17774;DHT22;9011;33.236;-97.118;2024-01-11T17:13:12;14.00;99.90
17774;DHT22;9011;33.236;-97.118;2024-01-11T17:15:39;14.10;99.90
17774;DHT22;9011;33.236;-97.118;2024-01-11T17:18:07;14.30;99.90
17774;DHT22;9011;33.236;-97.118;2024-01-11T17:20:36;14.40;99.90
17774;DHT22;9011;33.236;-97.118;2024-01-11T17:23:03;14.40;99.90
17774;DHT22;9011;33.236;-97.118;2024-01-11T17:25:31;14.60;99.90
17774;DHT22;9011;33.236;-97.118;2024-01-11T17:27:59;14.70;99.90
17774;DHT22;9011;33.236;-97.118;2024-01-11T17:30:26;14.80;99.90
17774;DHT22;9011;33.236;-97.118;2024-01-11T17:32:54;15.00;99.90
17774;DHT22;9011;33.236;-97.118;2024-01-11T17:35:22;15.10;99.90
17774;DHT22;9011;33.236;-97.118;2024-01-11T17:37:51;15.30;99.90
17774;DHT22;9011;33.236;-97.118;2024-01-11T17:40:18;15.50;99.90
17774;DHT22;9011;33.236;-97.118;2024-01-11T17:42:46;15.40;99.90
17774;DHT22;9011;33.236;-97.118;2024-01-11T17:45:13;15.40;99.90
17774;DHT22;9011;33.236;-97.118;2024-01-11T17:47:42;15.50;99.90
17774;DHT22;9011;33.236;-97.118;2024-01-11T17:50:10;15.50;99.90
17774;DHT22;9011;33.236;-97.118;2024-01-11T17:52:37;15.70;99.90
17774;DHT22;9011;33.236;-97.118;2024-01-11T17:55:06;15.80;99.90
17774;DHT22;9011;33.236;-97.118;2024-01-11T17:57:35;15.90;99.90
17774;DHT22;9011;33.236;-97.118;2024-01-11T18:00:04;16.10;99.90
17774;DHT22;9011;33.236;-97.118;2024-01-11T18:02:32;16.30;99.90
17774;DHT22;9011;33.236;-97.118;2024-01-11T18:05:00;16.20;99.90
17774;DHT22;9011;33.236;-97.118;2024-01-11T18:07:28;16.30;99.90
17774;DHT22;9011;33.236;-97.118;2024-01-11T18:09:55;16.30;99.90
17774;DHT22;9011;33.236;-97.118;2024-01-11T18:12:24;16.40;99.60
17774;DHT22;9011;33.236;-97.118;2024-01-11T18:14:54;16.70;99.80
17774;DHT22;9011;33.236;-97.118;2024-01-11T18:17:21;16.80;99.90
17774;DHT22;9011;33.236;-97.118;2024-01-11T18:19:49;16.80;99.60
17774;DHT22;9011;33.236;-97.118;2024-01-11T18:22:17;16.80;99.50
17774;DHT22;9011;33.236;-97.118;2024-01-11T18:24:44;17.00;99.90
17774;DHT22;9011;33.236;-97.118;2024-01-11T18:27:12;17.10;99.30
17774;DHT22;9011;33.236;-97.118;2024-01-11T18:29:40;17.10;99.60
17774;DHT22;9011;33.236;-97.118;2024-01-11T18:32:08;17.20;99.10
17774;DHT22;9011;33.236;-97.118;2024-01-11T18:34:36;17.40;98.70
17774;DHT22;9011;33.236;-97.118;2024-01-11T18:37:03;17.50;98.80
17774;DHT22;9011;33.236;-97.118;2024-01-11T18:39:31;17.60;98.80
17774;DHT22;9011;33.236;-97.118;2024-01-11T18:41:59;17.60;98.40
17774;DHT22;9011;33.236;-97.118;2024-01-11T18:44:28;17.70;98.70
17774;DHT22;9011;33.236;-97.118;2024-01-11T18:46:56;17.80;98.20
17774;DHT22;9011;33.236;-97.118;2024-01-11T18:49:24;17.90;97.70
17774;DHT22;9011;33.236;-97.118;2024-01-11T18:51:51;17.90;98.00
17774;DHT22;9011;33.236;-97.118;2024-01-11T18:54:19;18.00;98.30
17774;DHT22;9011;33.236;-97.118;2024-01-11T18:56:47;18.10;97.40
17774;DHT22;9011;33.236;-97.118;2024-01-11T18:59:14;18.20;98.80
17774;DHT22;9011;33.236;-97.118;2024-01-11T19:01:45;18.20;97.90
17774;DHT22;9011;33.236;-97.118;2024-01-11T19:04:14;18.30;97.60
17774;DHT22;9011;33.236;-97.118;2024-01-11T19:06:42;18.30;97.90
17774;DHT22;9011;33.236;-97.118;2024-01-11T19:09:11;18.40;97.50
17774;DHT22;9011;33.236;-97.118;2024-01-11T19:11:39;18.40;97.00
17774;DHT22;9011;33.236;-97.118;2024-01-11T19:14:06;18.60;97.20
17774;DHT22;9011;33.236;-97.118;2024-01-11T19:16:36;18.70;96.80
17774;DHT22;9011;33.236;-97.118;2024-01-11T19:19:04;18.90;96.70
17774;DHT22;9011;33.236;-97.118;2024-01-11T19:21:32;19.00;96.70
17774;DHT22;9011;33.236;-97.118;2024-01-11T19:24:00;19.10;96.90
17774;DHT22;9011;33.236;-97.118;2024-01-11T19:26:28;19.20;96.40
17774;DHT22;9011;33.236;-97.118;2024-01-11T19:28:56;19.30;97.20
17774;DHT22;9011;33.236;-97.118;2024-01-11T19:31:23;19.40;96.50
17774;DHT22;9011;33.236;-97.118;2024-01-11T19:33:51;19.50;95.10
17774;DHT22;9011;33.236;-97.118;2024-01-11T19:36:18;19.60;95.10
17774;DHT22;9011;33.236;-97.118;2024-01-11T19:38:47;19.60;94.20
17774;DHT22;9011;33.236;-97.118;2024-01-11T19:41:20;19.80;94.80
17774;DHT22;9011;33.236;-97.118;2024-01-11T19:43:49;19.80;94.50
17774;DHT22;9011;33.236;-97.118;2024-01-11T19:46:17;19.90;94.10
17774;DHT22;9011;33.236;-97.118;2024-01-11T19:48:45;19.90;93.30
17774;DHT22;9011;33.236;-97.118;2024-01-11T19:51:12;20.00;92.80
17774;DHT22;9011;33.236;-97.118;2024-01-11T19:53:40;20.10;93.30
17774;DHT22;9011;33.236;-97.118;2024-01-11T19:56:16;20.20;93.00
17774;DHT22;9011;33.236;-97.118;2024-01-11T19:58:43;20.30;93.20
17774;DHT22;9011;33.236;-97.118;2024-01-11T20:01:11;20.50;92.80
17774;DHT22;9011;33.236;-97.118;2024-01-11T20:03:39;20.50;92.60
17774;DHT22;9011;33.236;-97.118;2024-01-11T20:06:08;20.50;92.90
17774;DHT22;9011;33.236;-97.118;2024-01-11T20:08:35;20.60;92.40
17774;DHT22;9011;33.236;-97.118;2024-01-11T20:11:04;20.70;92.30
17774;DHT22;9011;33.236;-97.118;2024-01-11T20:13:33;20.70;92.60
17774;DHT22;9011;33.236;-97.118;2024-01-11T20:16:01;20.80;92.20
17774;DHT22;9011;33.236;-97.118;2024-01-11T20:18:29;20.90;91.70
17774;DHT22;9011;33.236;-97.118;2024-01-11T20:20:56;21.00;91.90
17774;DHT22;9011;33.236;-97.118;2024-01-11T20:23:24;21.00;91.90
17774;DHT22;9011;33.236;-97.118;2024-01-11T20:25:52;20.90;91.70
17774;DHT22;9011;33.236;-97.118;2024-01-11T20:28:19;21.10;91.50
17774;DHT22;9011;33.236;-97.118;2024-01-11T20:30:48;21.00;91.20
17774;DHT22;9011;33.236;-97.118;2024-01-11T20:33:15;21.10;91.80
17774;DHT22;9011;33.236;-97.118;2024-01-11T20:35:43;21.00;90.40
17774;DHT22;9011;33.236;-97.118;2024-01-11T20:38:10;21.10;90.50
17774;DHT22;9011;33.236;-97.118;2024-01-11T20:40:38;21.10;90.40
17774;DHT22;9011;33.236;-97.118;2024-01-11T20:43:05;21.20;91.00
17774;DHT22;9011;33.236;-97.118;2024-01-11T20:45:35;21.30;91.40
17774;DHT22;9011;33.236;-97.118;2024-01-11T20:48:04;21.30;90.80
17774;DHT22;9011;33.236;-97.118;2024-01-11T20:50:32;21.40;92.10
17774;DHT22;9011;33.236;-97.118;2024-01-11T20:52:59;21.50;94.10
17774;DHT22;9011;33.236;-97.118;2024-01-11T20:55:28;21.30;93.90
17774;DHT22;9011;33.236;-97.118;2024-01-11T20:57:55;21.00;93.80
17774;DHT22;9011;33.236;-97.118;2024-01-11T21:00:23;20.90;94.10
17774;DHT22;9011;33.236;-97.118;2024-01-11T21:02:50;20.70;94.10
17774;DHT22;9011;33.236;-97.118;2024-01-11T21:05:20;20.60;94.20
17774;DHT22;9011;33.236;-97.118;2024-01-11T21:07:48;20.70;94.20
17774;DHT22;9011;33.236;-97.118;2024-01-11T21:10:15;20.80;94.80
17774;DHT22;9011;33.236;-97.118;2024-01-11T21:12:43;20.50;94.90
17774;DHT22;9011;33.236;-97.118;2024-01-11T21:15:11;20.60;94.70
17774;DHT22;9011;33.236;-97.118;2024-01-11T21:17:38;20.60;95.20
17774;DHT22;9011;33.236;-97.118;2024-01-11T21:20:06;20.60;95.20
17774;DHT22;9011;33.236;-97.118;2024-01-11T21:22:35;20.70;95.00
17774;DHT22;9011;33.236;-97.118;2024-01-11T21:25:03;20.80;94.80
17774;DHT22;9011;33.236;-97.118;2024-01-11T21:27:31;20.80;94.90
17774;DHT22;9011;33.236;-97.118;2024-01-11T21:29:59;20.70;94.90
17774;DHT22;9011;33.236;-97.118;2024-01-11T21:32:26;20.80;94.70
17774;DHT22;9011;33.236;-97.118;2024-01-11T21:34:54;20.80;95.50
17774;DHT22;9011;33.236;-97.118;2024-01-11T21:37:22;20.90;94.80
17774;DHT22;9011;33.236;-97.118;2024-01-11T21:39:50;20.90;95.20
17774;DHT22;9011;33.236;-97.118;2024-01-11T21:42:20;20.80;94.90
17774;DHT22;9011;33.236;-97.118;2024-01-11T21:44:47;20.70;95.60
17774;DHT22;9011;33.236;-97.118;2024-01-11T21:47:15;20.70;95.40
17774;DHT22;9011;33.236;-97.118;2024-01-11T21:49:42;20.70;95.60
17774;DHT22;9011;33.236;-97.118;2024-01-11T21:52:10;20.50;95.50
17774;DHT22;9011;33.236;-97.118;2024-01-11T21:54:38;20.60;95.90
17774;DHT22;9011;33.236;-97.118;2024-01-11T21:57:06;20.70;96.10
17774;DHT22;9011;33.236;-97.118;2024-01-11T21:59:34;20.70;96.00
17774;DHT22;9011;33.236;-97.118;2024-01-11T22:02:02;20.70;96.10
17774;DHT22;9011;33.236;-97.118;2024-01-11T22:04:30;20.70;96.60
17774;DHT22;9011;33.236;-97.118;2024-01-11T22:06:58;20.70;96.60
17774;DHT22;9011;33.236;-97.118;2024-01-11T22:09:26;20.60;96.80
17774;DHT22;9011;33.236;-97.118;2024-01-11T22:11:53;20.60;97.00
17774;DHT22;9011;33.236;-97.118;2024-01-11T22:14:22;20.60;97.20
17774;DHT22;9011;33.236;-97.118;2024-01-11T22:16:50;20.50;97.60
17774;DHT22;9011;33.236;-97.118;2024-01-11T22:19:17;20.50;98.10
17774;DHT22;9011;33.236;-97.118;2024-01-11T22:21:45;20.40;98.10
17774;DHT22;9011;33.236;-97.118;2024-01-11T22:24:12;20.50;98.60
17774;DHT22;9011;33.236;-97.118;2024-01-11T22:26:42;20.40;98.90
17774;DHT22;9011;33.236;-97.118;2024-01-11T22:29:09;20.40;99.30
17774;DHT22;9011;33.236;-97.118;2024-01-11T22:31:38;20.40;99.70
17774;DHT22;9011;33.236;-97.118;2024-01-11T22:34:06;20.30;99.90
17774;DHT22;9011;33.236;-97.118;2024-01-11T22:36:33;20.30;99.90
17774;DHT22;9011;33.236;-97.118;2024-01-11T22:39:01;20.20;99.90
17774;DHT22;9011;33.236;-97.118;2024-01-11T22:41:36;20.20;99.90
17774;DHT22;9011;33.236;-97.118;2024-01-11T22:44:04;20.10;99.90
17774;DHT22;9011;33.236;-97.118;2024-01-11T22:46:32;20.00;99.90
17774;DHT22;9011;33.236;-97.118;2024-01-11T22:49:01;20.00;99.90
17774;DHT22;9011;33.236;-97.118;2024-01-11T22:51:30;19.90;99.90
17774;DHT22;9011;33.236;-97.118;2024-01-11T22:53:58;19.90;99.90
17774;DHT22;9011;33.236;-97.118;2024-01-11T22:56:26;19.90;99.90
17774;DHT22;9011;33.236;-97.118;2024-01-11T22:58:54;19.70;99.90
17774;DHT22;9011;33.236;-97.118;2024-01-11T23:01:21;19.70;99.90
17774;DHT22;9011;33.236;-97.118;2024-01-11T23:03:49;19.50;99.90
17774;DHT22;9011;33.236;-97.118;2024-01-11T23:06:17;19.40;99.90
17774;DHT22;9011;33.236;-97.118;2024-01-11T23:08:45;19.30;99.90
17774;DHT22;9011;33.236;-97.118;2024-01-11T23:11:13;19.20;99.90
17774;DHT22;9011;33.236;-97.118;2024-01-11T23:13:40;19.00;99.90
17774;DHT22;9011;33.236;-97.118;2024-01-11T23:16:08;19.00;99.90
17774;DHT22;9011;33.236;-97.118;2024-01-11T23:18:36;18.90;99.90
17774;DHT22;9011;33.236;-97.118;2024-01-11T23:21:04;18.80;99.90
17774;DHT22;9011;33.236;-97.118;2024-01-11T23:23:33;18.70;99.90
17774;DHT22;9011;33.236;-97.118;2024-01-11T23:26:00;18.60;99.90
17774;DHT22;9011;33.236;-97.118;2024-01-11T23:28:28;18.50;99.90
17774;DHT22;9011;33.236;-97.118;2024-01-11T23:30:56;18.40;99.90
17774;DHT22;9011;33.236;-97.118;2024-01-11T23:33:24;18.30;99.90
17774;DHT22;9011;33.236;-97.118;2024-01-11T23:35:51;18.30;99.90
17774;DHT22;9011;33.236;-97.118;2024-01-11T23:38:19;18.20;99.90
17774;DHT22;9011;33.236;-97.118;2024-01-11T23:40:48;18.10;99.90
17774;DHT22;9011;33.236;-97.118;2024-01-11T23:43:16;18.00;99.90
17774;DHT22;9011;33.236;-97.118;2024-01-11T23:45:44;18.00;99.90
17774;DHT22;9011;33.236;-97.118;2024-01-11T23:48:11;17.70;99.90
17774;DHT22;9011;33.236;-97.118;2024-01-11T23:50:39;17.70;99.90
17774;DHT22;9011;33.236;-97.118;2024-01-11T23:53:07;17.70;99.90
17774;DHT22;9011;33.236;-97.118;2024-01-11T23:55:35;17.50;99.90
17774;DHT22;9011;33.236;-97.118;2024-01-11T23:58:03;17.50;99.90
